sensor_id;sensor_type;location;lat;lon;timestamp;temperature;humidity
6462;DHT22;3264;42.862;25.098;2022-10-13T00:01:36;9.60;99.90
6462;DHT22;3264;42.862;25.098;2022-10-13T00:04:04;9.50;99.90
6462;DHT22;3264;42.862;25.098;2022-10-13T00:06:39;9.50;99.90
6462;DHT22;3264;42.862;25.098;2022-10-13T00:09:06;9.40;99.90
6462;DHT22;3264;42.862;25.098;2022-10-13T00:11:43;9.50;99.90
6462;DHT22;3264;42.862;25.098;2022-10-13T00:14:20;9.40;99.90
6462;DHT22;3264;42.862;25.098;2022-10-13T00:16:48;9.40;99.90
6462;DHT22;3264;42.862;25.098;2022-10-13T00:19:19;9.40;99.90
6462;DHT22;3264;42.862;25.098;2022-10-13T00:22:00;9.30;99.90
6462;DHT22;3264;42.862;25.098;2022-10-13T00:24:28;9.30;99.90
6462;DHT22;3264;42.862;25.098;2022-10-13T00:27:01;9.20;99.90
6462;DHT22;3264;42.862;25.098;2022-10-13T00:29:29;9.30;99.90
6462;DHT22;3264;42.862;25.098;2022-10-13T00:32:02;9.20;99.90
6462;DHT22;3264;42.862;25.098;2022-10-13T00:34:30;9.20;99.90
6462;DHT22;3264;42.862;25.098;2022-10-13T00:36:59;9.20;99.90
6462;DHT22;3264;42.862;25.098;2022-10-13T00:39:27;9.10;99.90
6462;DHT22;3264;42.862;25.098;2022-10-13T00:41:56;9.10;99.90
6462;DHT22;3264;42.862;25.098;2022-10-13T00:45:00;9.10;99.90
6462;DHT22;3264;42.862;25.098;2022-10-13T00:47:32;9.10;99.90
6462;DHT22;3264;42.862;25.098;2022-10-13T00:50:03;9.00;99.90
6462;DHT22;3264;42.862;25.098;2022-10-13T00:52:32;9.00;99.90
6462;DHT22;3264;42.862;25.098;2022-10-13T00:55:02;9.00;99.90
6462;DHT22;3264;42.862;25.098;2022-10-13T00:57:30;8.90;99.90
6462;DHT22;3264;42.862;25.098;2022-10-13T01:00:03;8.90;99.90
6462;DHT22;3264;42.862;25.098;2022-10-13T01:02:34;8.90;99.90
6462;DHT22;3264;42.862;25.098;2022-10-13T01:05:05;8.90;99.90
6462;DHT22;3264;42.862;25.098;2022-10-13T01:07:48;8.90;99.90
6462;DHT22;3264;42.862;25.098;2022-10-13T01:10:16;8.90;99.90
6462;DHT22;3264;42.862;25.098;2022-10-13T01:12:58;8.90;99.90
6462;DHT22;3264;42.862;25.098;2022-10-13T01:15:33;8.80;99.90
6462;DHT22;3264;42.862;25.098;2022-10-13T01:18:09;8.90;99.90
6462;DHT22;3264;42.862;25.098;2022-10-13T01:21:03;8.90;99.90
6462;DHT22;3264;42.862;25.098;2022-10-13T01:30:07;8.70;99.90
6462;DHT22;3264;42.862;25.098;2022-10-13T01:32:54;8.70;99.90
6462;DHT22;3264;42.862;25.098;2022-10-13T01:35:32;8.70;99.90
6462;DHT22;3264;42.862;25.098;2022-10-13T01:38:08;8.80;99.90
6462;DHT22;3264;42.862;25.098;2022-10-13T01:40:44;8.70;99.90
6462;DHT22;3264;42.862;25.098;2022-10-13T01:43:18;8.60;99.90
6462;DHT22;3264;42.862;25.098;2022-10-13T01:45:55;8.60;99.90
6462;DHT22;3264;42.862;25.098;2022-10-13T01:48:26;8.60;99.90
6462;DHT22;3264;42.862;25.098;2022-10-13T01:50:56;8.60;99.90
6462;DHT22;3264;42.862;25.098;2022-10-13T01:53:26;8.60;99.90
6462;DHT22;3264;42.862;25.098;2022-10-13T01:55:58;8.70;99.90
6462;DHT22;3264;42.862;25.098;2022-10-13T01:58:28;8.70;99.90
6462;DHT22;3264;42.862;25.098;2022-10-13T02:01:13;8.60;99.90
6462;DHT22;3264;42.862;25.098;2022-10-13T02:03:54;8.60;99.90
6462;DHT22;3264;42.862;25.098;2022-10-13T02:06:29;8.50;99.90
6462;DHT22;3264;42.862;25.098;2022-10-13T02:09:01;8.50;99.90
6462;DHT22;3264;42.862;25.098;2022-10-13T02:11:31;8.50;99.90
6462;DHT22;3264;42.862;25.098;2022-10-13T02:14:14;8.50;99.90
6462;DHT22;3264;42.862;25.098;2022-10-13T02:16:46;8.40;99.90
6462;DHT22;3264;42.862;25.098;2022-10-13T02:19:17;8.40;99.90
6462;DHT22;3264;42.862;25.098;2022-10-13T02:21:46;8.30;99.90
6462;DHT22;3264;42.862;25.098;2022-10-13T02:24:16;8.30;99.90
6462;DHT22;3264;42.862;25.098;2022-10-13T02:26:44;8.30;99.90
6462;DHT22;3264;42.862;25.098;2022-10-13T02:29:15;8.20;99.90
6462;DHT22;3264;42.862;25.098;2022-10-13T02:31:46;8.20;99.90
6462;DHT22;3264;42.862;25.098;2022-10-13T02:34:14;8.20;99.90
6462;DHT22;3264;42.862;25.098;2022-10-13T02:36:43;8.10;99.90
6462;DHT22;3264;42.862;25.098;2022-10-13T02:39:11;8.10;99.90
6462;DHT22;3264;42.862;25.098;2022-10-13T02:41:40;8.10;99.90
6462;DHT22;3264;42.862;25.098;2022-10-13T02:44:08;8.10;99.90
6462;DHT22;3264;42.862;25.098;2022-10-13T02:46:36;8.10;99.90
6462;DHT22;3264;42.862;25.098;2022-10-13T02:49:08;8.00;99.90
6462;DHT22;3264;42.862;25.098;2022-10-13T02:51:35;7.90;99.90
6462;DHT22;3264;42.862;25.098;2022-10-13T02:54:03;7.90;99.90
6462;DHT22;3264;42.862;25.098;2022-10-13T02:56:32;7.90;99.90
6462;DHT22;3264;42.862;25.098;2022-10-13T02:59:00;7.90;99.90
6462;DHT22;3264;42.862;25.098;2022-10-13T03:01:29;7.90;99.90
6462;DHT22;3264;42.862;25.098;2022-10-13T03:03:56;7.90;99.90
6462;DHT22;3264;42.862;25.098;2022-10-13T03:06:26;7.90;99.90
6462;DHT22;3264;42.862;25.098;2022-10-13T03:08:54;8.00;99.90
6462;DHT22;3264;42.862;25.098;2022-10-13T03:11:22;8.00;99.90
6462;DHT22;3264;42.862;25.098;2022-10-13T03:13:50;8.00;99.90
6462;DHT22;3264;42.862;25.098;2022-10-13T03:16:19;7.90;99.90
6462;DHT22;3264;42.862;25.098;2022-10-13T03:18:47;7.90;99.90
6462;DHT22;3264;42.862;25.098;2022-10-13T03:21:14;7.90;99.90
6462;DHT22;3264;42.862;25.098;2022-10-13T03:23:44;7.90;99.90
6462;DHT22;3264;42.862;25.098;2022-10-13T03:26:12;7.80;99.90
6462;DHT22;3264;42.862;25.098;2022-10-13T03:28:40;7.80;99.90
6462;DHT22;3264;42.862;25.098;2022-10-13T03:31:10;7.90;99.90
6462;DHT22;3264;42.862;25.098;2022-10-13T03:33:39;7.90;99.90
6462;DHT22;3264;42.862;25.098;2022-10-13T03:36:09;7.90;99.90
6462;DHT22;3264;42.862;25.098;2022-10-13T03:38:37;7.90;99.90
6462;DHT22;3264;42.862;25.098;2022-10-13T03:41:08;7.70;99.90
6462;DHT22;3264;42.862;25.098;2022-10-13T03:43:37;7.70;99.90
6462;DHT22;3264;42.862;25.098;2022-10-13T03:46:07;7.70;99.90
6462;DHT22;3264;42.862;25.098;2022-10-13T03:48:36;7.70;99.90
6462;DHT22;3264;42.862;25.098;2022-10-13T03:51:05;7.70;99.90
6462;DHT22;3264;42.862;25.098;2022-10-13T03:53:34;7.70;99.90
6462;DHT22;3264;42.862;25.098;2022-10-13T03:56:02;7.70;99.90
6462;DHT22;3264;42.862;25.098;2022-10-13T03:58:33;7.70;99.90
6462;DHT22;3264;42.862;25.098;2022-10-13T04:01:02;7.70;99.90
6462;DHT22;3264;42.862;25.098;2022-10-13T04:03:31;7.70;99.90
6462;DHT22;3264;42.862;25.098;2022-10-13T04:06:01;7.70;99.90
6462;DHT22;3264;42.862;25.098;2022-10-13T04:08:30;7.70;99.90
6462;DHT22;3264;42.862;25.098;2022-10-13T04:11:01;7.60;99.90
6462;DHT22;3264;42.862;25.098;2022-10-13T04:13:31;7.60;99.90
6462;DHT22;3264;42.862;25.098;2022-10-13T04:16:01;7.60;99.90
6462;DHT22;3264;42.862;25.098;2022-10-13T04:18:30;7.50;99.90
6462;DHT22;3264;42.862;25.098;2022-10-13T04:20:59;7.50;99.90
6462;DHT22;3264;42.862;25.098;2022-10-13T04:23:26;7.40;99.90
6462;DHT22;3264;42.862;25.098;2022-10-13T04:25:54;7.30;99.90
6462;DHT22;3264;42.862;25.098;2022-10-13T04:28:24;7.40;99.90
6462;DHT22;3264;42.862;25.098;2022-10-13T04:30:53;7.40;99.90
6462;DHT22;3264;42.862;25.098;2022-10-13T04:33:22;7.40;99.90
6462;DHT22;3264;42.862;25.098;2022-10-13T04:35:50;7.40;99.90
6462;DHT22;3264;42.862;25.098;2022-10-13T04:38:19;7.40;99.90
6462;DHT22;3264;42.862;25.098;2022-10-13T04:40:46;7.30;99.90
6462;DHT22;3264;42.862;25.098;2022-10-13T04:43:16;7.30;99.90
6462;DHT22;3264;42.862;25.098;2022-10-13T04:45:44;7.20;99.90
6462;DHT22;3264;42.862;25.098;2022-10-13T04:48:13;7.30;99.90
6462;DHT22;3264;42.862;25.098;2022-10-13T04:50:41;7.40;99.90
6462;DHT22;3264;42.862;25.098;2022-10-13T04:53:36;7.40;99.90
6462;DHT22;3264;42.862;25.098;2022-10-13T04:56:07;7.50;99.90
6462;DHT22;3264;42.862;25.098;2022-10-13T04:58:36;7.60;99.90
6462;DHT22;3264;42.862;25.098;2022-10-13T05:01:07;7.70;99.90
6462;DHT22;3264;42.862;25.098;2022-10-13T05:03:37;7.70;99.90
6462;DHT22;3264;42.862;25.098;2022-10-13T05:06:06;7.80;99.90
6462;DHT22;3264;42.862;25.098;2022-10-13T05:08:39;7.90;99.90
6462;DHT22;3264;42.862;25.098;2022-10-13T05:11:08;8.00;99.90
6462;DHT22;3264;42.862;25.098;2022-10-13T05:13:35;8.00;99.90
6462;DHT22;3264;42.862;25.098;2022-10-13T05:16:06;8.10;99.90
6462;DHT22;3264;42.862;25.098;2022-10-13T05:18:36;8.30;99.90
6462;DHT22;3264;42.862;25.098;2022-10-13T05:21:08;8.30;99.90
6462;DHT22;3264;42.862;25.098;2022-10-13T05:23:36;8.30;99.90
6462;DHT22;3264;42.862;25.098;2022-10-13T05:26:15;8.50;99.90
6462;DHT22;3264;42.862;25.098;2022-10-13T05:28:43;8.60;99.90
6462;DHT22;3264;42.862;25.098;2022-10-13T05:31:12;8.70;99.90
6462;DHT22;3264;42.862;25.098;2022-10-13T05:33:41;8.70;99.90
6462;DHT22;3264;42.862;25.098;2022-10-13T05:36:12;8.80;99.90
6462;DHT22;3264;42.862;25.098;2022-10-13T05:38:40;8.90;99.90
6462;DHT22;3264;42.862;25.098;2022-10-13T05:41:10;8.90;99.90
6462;DHT22;3264;42.862;25.098;2022-10-13T05:43:39;9.10;99.90
6462;DHT22;3264;42.862;25.098;2022-10-13T05:46:08;9.20;99.90
6462;DHT22;3264;42.862;25.098;2022-10-13T05:48:37;9.30;99.90
6462;DHT22;3264;42.862;25.098;2022-10-13T05:51:17;9.40;99.90
6462;DHT22;3264;42.862;25.098;2022-10-13T05:53:50;9.50;99.90
6462;DHT22;3264;42.862;25.098;2022-10-13T05:56:20;9.00;99.90
6462;DHT22;3264;42.862;25.098;2022-10-13T05:58:53;9.10;99.90
6462;DHT22;3264;42.862;25.098;2022-10-13T06:01:25;9.40;99.90
6462;DHT22;3264;42.862;25.098;2022-10-13T06:03:55;9.70;99.90
6462;DHT22;3264;42.862;25.098;2022-10-13T06:06:26;9.90;99.90
6462;DHT22;3264;42.862;25.098;2022-10-13T06:08:54;10.20;99.90
6462;DHT22;3264;42.862;25.098;2022-10-13T06:11:21;10.40;99.90
6462;DHT22;3264;42.862;25.098;2022-10-13T06:13:49;10.30;99.90
6462;DHT22;3264;42.862;25.098;2022-10-13T06:16:17;10.30;99.90
6462;DHT22;3264;42.862;25.098;2022-10-13T06:18:45;10.40;99.90
6462;DHT22;3264;42.862;25.098;2022-10-13T06:21:12;10.70;99.90
6462;DHT22;3264;42.862;25.098;2022-10-13T06:23:42;10.90;99.90
6462;DHT22;3264;42.862;25.098;2022-10-13T06:26:10;11.10;99.90
6462;DHT22;3264;42.862;25.098;2022-10-13T06:28:38;11.30;99.90
6462;DHT22;3264;42.862;25.098;2022-10-13T06:31:06;11.20;99.90
6462;DHT22;3264;42.862;25.098;2022-10-13T06:33:34;11.00;99.90
6462;DHT22;3264;42.862;25.098;2022-10-13T06:36:04;11.00;99.90
6462;DHT22;3264;42.862;25.098;2022-10-13T06:38:32;11.10;99.90
6462;DHT22;3264;42.862;25.098;2022-10-13T06:41:02;11.10;99.90
6462;DHT22;3264;42.862;25.098;2022-10-13T06:43:32;11.20;99.90
6462;DHT22;3264;42.862;25.098;2022-10-13T06:45:59;11.60;99.90
6462;DHT22;3264;42.862;25.098;2022-10-13T06:48:28;11.70;99.90
6462;DHT22;3264;42.862;25.098;2022-10-13T06:51:00;11.90;99.90
6462;DHT22;3264;42.862;25.098;2022-10-13T06:53:29;12.40;99.90
6462;DHT22;3264;42.862;25.098;2022-10-13T06:55:58;12.60;99.90
6462;DHT22;3264;42.862;25.098;2022-10-13T06:58:28;12.60;99.90
6462;DHT22;3264;42.862;25.098;2022-10-13T07:00:56;13.20;99.90
6462;DHT22;3264;42.862;25.098;2022-10-13T07:03:25;13.30;99.90
6462;DHT22;3264;42.862;25.098;2022-10-13T07:05:53;13.60;99.90
6462;DHT22;3264;42.862;25.098;2022-10-13T07:08:21;13.30;99.90
6462;DHT22;3264;42.862;25.098;2022-10-13T07:10:49;13.40;99.90
6462;DHT22;3264;42.862;25.098;2022-10-13T07:13:17;13.20;99.90
6462;DHT22;3264;42.862;25.098;2022-10-13T07:15:47;13.30;99.90
6462;DHT22;3264;42.862;25.098;2022-10-13T07:18:14;13.30;99.90
6462;DHT22;3264;42.862;25.098;2022-10-13T07:20:42;13.40;99.90
6462;DHT22;3264;42.862;25.098;2022-10-13T07:23:10;13.60;99.90
6462;DHT22;3264;42.862;25.098;2022-10-13T07:25:38;13.60;99.90
6462;DHT22;3264;42.862;25.098;2022-10-13T07:28:06;13.70;99.90
6462;DHT22;3264;42.862;25.098;2022-10-13T07:30:38;13.60;99.90
6462;DHT22;3264;42.862;25.098;2022-10-13T07:33:07;13.90;99.90
6462;DHT22;3264;42.862;25.098;2022-10-13T07:35:37;13.90;99.90
6462;DHT22;3264;42.862;25.098;2022-10-13T07:38:06;14.00;99.90
6462;DHT22;3264;42.862;25.098;2022-10-13T07:40:34;14.10;99.90
6462;DHT22;3264;42.862;25.098;2022-10-13T07:43:03;14.80;99.90
6462;DHT22;3264;42.862;25.098;2022-10-13T07:45:30;14.60;99.90
6462;DHT22;3264;42.862;25.098;2022-10-13T07:47:59;15.10;99.90
6462;DHT22;3264;42.862;25.098;2022-10-13T07:50:29;14.90;99.90
6462;DHT22;3264;42.862;25.098;2022-10-13T07:52:58;15.00;99.90
6462;DHT22;3264;42.862;25.098;2022-10-13T07:55:26;15.30;99.90
6462;DHT22;3264;42.862;25.098;2022-10-13T07:57:54;15.70;99.90
6462;DHT22;3264;42.862;25.098;2022-10-13T08:00:22;15.90;99.90
6462;DHT22;3264;42.862;25.098;2022-10-13T08:02:51;15.90;99.90
6462;DHT22;3264;42.862;25.098;2022-10-13T08:05:19;16.40;99.90
6462;DHT22;3264;42.862;25.098;2022-10-13T08:07:48;17.20;98.80
6462;DHT22;3264;42.862;25.098;2022-10-13T08:10:17;18.00;96.70
6462;DHT22;3264;42.862;25.098;2022-10-13T08:12:47;18.90;95.80
6462;DHT22;3264;42.862;25.098;2022-10-13T08:15:15;20.00;93.00
6462;DHT22;3264;42.862;25.098;2022-10-13T08:17:44;21.20;90.70
6462;DHT22;3264;42.862;25.098;2022-10-13T08:20:11;21.80;87.70
6462;DHT22;3264;42.862;25.098;2022-10-13T08:22:41;22.00;84.70
6462;DHT22;3264;42.862;25.098;2022-10-13T08:25:10;23.00;83.90
6462;DHT22;3264;42.862;25.098;2022-10-13T08:27:38;23.50;80.00
6462;DHT22;3264;42.862;25.098;2022-10-13T08:30:07;23.20;76.80
6462;DHT22;3264;42.862;25.098;2022-10-13T08:32:36;21.60;76.20
6462;DHT22;3264;42.862;25.098;2022-10-13T08:35:08;21.40;79.40
6462;DHT22;3264;42.862;25.098;2022-10-13T08:37:37;21.70;80.50
6462;DHT22;3264;42.862;25.098;2022-10-13T08:40:09;21.30;78.20
6462;DHT22;3264;42.862;25.098;2022-10-13T08:42:42;22.50;80.10
6462;DHT22;3264;42.862;25.098;2022-10-13T08:45:16;23.50;76.10
6462;DHT22;3264;42.862;25.098;2022-10-13T08:47:47;24.10;74.00
6462;DHT22;3264;42.862;25.098;2022-10-13T08:50:19;24.30;73.60
6462;DHT22;3264;42.862;25.098;2022-10-13T08:52:51;23.80;72.50
6462;DHT22;3264;42.862;25.098;2022-10-13T08:55:31;22.30;73.40
6462;DHT22;3264;42.862;25.098;2022-10-13T08:58:08;22.20;74.10
6462;DHT22;3264;42.862;25.098;2022-10-13T09:00:36;22.30;74.90
6462;DHT22;3264;42.862;25.098;2022-10-13T09:03:20;21.70;78.10
6462;DHT22;3264;42.862;25.098;2022-10-13T09:06:01;21.70;74.60
6462;DHT22;3264;42.862;25.098;2022-10-13T09:08:37;23.00;75.00
6462;DHT22;3264;42.862;25.098;2022-10-13T09:11:07;22.30;74.40
6462;DHT22;3264;42.862;25.098;2022-10-13T09:13:38;21.40;77.10
6462;DHT22;3264;42.862;25.098;2022-10-13T09:16:07;20.40;78.50
6462;DHT22;3264;42.862;25.098;2022-10-13T09:18:35;20.20;81.10
6462;DHT22;3264;42.862;25.098;2022-10-13T09:21:25;20.20;83.20
6462;DHT22;3264;42.862;25.098;2022-10-13T09:24:05;20.10;84.60
6462;DHT22;3264;42.862;25.098;2022-10-13T09:26:36;20.30;84.30
6462;DHT22;3264;42.862;25.098;2022-10-13T09:29:17;20.10;87.20
6462;DHT22;3264;42.862;25.098;2022-10-13T09:31:45;20.80;85.50
6462;DHT22;3264;42.862;25.098;2022-10-13T09:34:21;20.80;84.10
6462;DHT22;3264;42.862;25.098;2022-10-13T09:36:58;21.30;77.80
6462;DHT22;3264;42.862;25.098;2022-10-13T09:39:27;21.70;74.20
6462;DHT22;3264;42.862;25.098;2022-10-13T09:42:20;22.30;74.00
6462;DHT22;3264;42.862;25.098;2022-10-13T09:44:57;22.50;75.40
6462;DHT22;3264;42.862;25.098;2022-10-13T09:47:26;22.80;69.50
6462;DHT22;3264;42.862;25.098;2022-10-13T09:50:13;23.20;73.50
6462;DHT22;3264;42.862;25.098;2022-10-13T09:52:42;22.70;69.70
6462;DHT22;3264;42.862;25.098;2022-10-13T09:55:28;22.40;70.80
6462;DHT22;3264;42.862;25.098;2022-10-13T09:58:01;22.10;71.50
6462;DHT22;3264;42.862;25.098;2022-10-13T10:00:32;22.70;73.90
6462;DHT22;3264;42.862;25.098;2022-10-13T10:03:04;23.00;75.70
6462;DHT22;3264;42.862;25.098;2022-10-13T10:05:40;22.10;68.60
6462;DHT22;3264;42.862;25.098;2022-10-13T10:08:14;21.70;68.60
6462;DHT22;3264;42.862;25.098;2022-10-13T10:10:45;21.90;70.70
6462;DHT22;3264;42.862;25.098;2022-10-13T10:13:13;21.90;72.50
6462;DHT22;3264;42.862;25.098;2022-10-13T10:15:51;21.90;70.40
6462;DHT22;3264;42.862;25.098;2022-10-13T10:18:26;21.90;74.20
6462;DHT22;3264;42.862;25.098;2022-10-13T10:21:01;22.10;73.00
6462;DHT22;3264;42.862;25.098;2022-10-13T10:23:44;21.50;71.10
6462;DHT22;3264;42.862;25.098;2022-10-13T10:26:17;21.30;76.00
6462;DHT22;3264;42.862;25.098;2022-10-13T10:31:51;22.30;76.90
6462;DHT22;3264;42.862;25.098;2022-10-13T10:34:35;23.00;73.90
6462;DHT22;3264;42.862;25.098;2022-10-13T10:37:16;21.90;67.00
6462;DHT22;3264;42.862;25.098;2022-10-13T10:39:48;22.40;71.50
6462;DHT22;3264;42.862;25.098;2022-10-13T10:45:17;22.40;69.60
6462;DHT22;3264;42.862;25.098;2022-10-13T10:47:51;21.80;70.80
6462;DHT22;3264;42.862;25.098;2022-10-13T10:50:22;22.20;71.50
6462;DHT22;3264;42.862;25.098;2022-10-13T10:52:58;21.80;70.80
6462;DHT22;3264;42.862;25.098;2022-10-13T10:55:31;21.90;74.10
6462;DHT22;3264;42.862;25.098;2022-10-13T10:58:06;22.00;73.90
6462;DHT22;3264;42.862;25.098;2022-10-13T11:00:42;21.10;68.50
6462;DHT22;3264;42.862;25.098;2022-10-13T11:03:24;21.60;73.50
6462;DHT22;3264;42.862;25.098;2022-10-13T11:06:01;22.10;73.30
6462;DHT22;3264;42.862;25.098;2022-10-13T11:08:38;21.70;72.40
6462;DHT22;3264;42.862;25.098;2022-10-13T11:11:28;21.50;70.60
6462;DHT22;3264;42.862;25.098;2022-10-13T11:13:59;21.90;70.80
6462;DHT22;3264;42.862;25.098;2022-10-13T11:16:30;21.00;65.70
6462;DHT22;3264;42.862;25.098;2022-10-13T11:19:03;21.30;72.50
6462;DHT22;3264;42.862;25.098;2022-10-13T11:24:51;21.50;68.60
6462;DHT22;3264;42.862;25.098;2022-10-13T11:27:40;21.30;68.80
6462;DHT22;3264;42.862;25.098;2022-10-13T11:30:40;21.10;67.90
6462;DHT22;3264;42.862;25.098;2022-10-13T11:33:34;21.30;70.10
6462;DHT22;3264;42.862;25.098;2022-10-13T11:39:37;21.10;70.40
6462;DHT22;3264;42.862;25.098;2022-10-13T11:42:23;21.20;69.50
6462;DHT22;3264;42.862;25.098;2022-10-13T11:44:54;21.00;70.30
6462;DHT22;3264;42.862;25.098;2022-10-13T11:47:45;20.90;68.40
6462;DHT22;3264;42.862;25.098;2022-10-13T11:50:24;21.10;68.00
6462;DHT22;3264;42.862;25.098;2022-10-13T11:53:15;21.00;68.10
6462;DHT22;3264;42.862;25.098;2022-10-13T11:55:48;20.70;68.10
6462;DHT22;3264;42.862;25.098;2022-10-13T11:58:19;20.90;71.20
6462;DHT22;3264;42.862;25.098;2022-10-13T12:00:53;20.80;70.50
6462;DHT22;3264;42.862;25.098;2022-10-13T12:03:25;20.80;71.10
6462;DHT22;3264;42.862;25.098;2022-10-13T12:05:56;20.80;69.50
6462;DHT22;3264;42.862;25.098;2022-10-13T12:08:27;20.90;70.50
6462;DHT22;3264;42.862;25.098;2022-10-13T12:10:57;20.80;69.10
6462;DHT22;3264;42.862;25.098;2022-10-13T12:13:31;20.70;69.60
6462;DHT22;3264;42.862;25.098;2022-10-13T12:16:01;20.60;74.80
6462;DHT22;3264;42.862;25.098;2022-10-13T12:18:33;20.60;71.40
6462;DHT22;3264;42.862;25.098;2022-10-13T12:21:08;20.60;72.10
6462;DHT22;3264;42.862;25.098;2022-10-13T12:23:37;20.50;70.50
6462;DHT22;3264;42.862;25.098;2022-10-13T12:26:11;20.90;72.60
6462;DHT22;3264;42.862;25.098;2022-10-13T12:28:49;20.90;71.80
6462;DHT22;3264;42.862;25.098;2022-10-13T12:31:19;20.70;73.00
6462;DHT22;3264;42.862;25.098;2022-10-13T12:33:59;20.70;70.80
6462;DHT22;3264;42.862;25.098;2022-10-13T12:36:29;20.50;71.40
6462;DHT22;3264;42.862;25.098;2022-10-13T12:39:03;20.80;73.70
6462;DHT22;3264;42.862;25.098;2022-10-13T12:41:36;21.00;74.30
6462;DHT22;3264;42.862;25.098;2022-10-13T12:44:06;20.80;69.40
6462;DHT22;3264;42.862;25.098;2022-10-13T12:46:35;20.80;69.80
6462;DHT22;3264;42.862;25.098;2022-10-13T12:49:04;20.80;69.40
6462;DHT22;3264;42.862;25.098;2022-10-13T12:51:34;21.00;69.30
6462;DHT22;3264;42.862;25.098;2022-10-13T12:54:06;20.70;69.00
6462;DHT22;3264;42.862;25.098;2022-10-13T12:56:36;20.50;69.20
6462;DHT22;3264;42.862;25.098;2022-10-13T12:59:11;20.50;71.60
6462;DHT22;3264;42.862;25.098;2022-10-13T13:01:40;20.50;73.30
6462;DHT22;3264;42.862;25.098;2022-10-13T13:04:28;20.40;68.60
6462;DHT22;3264;42.862;25.098;2022-10-13T13:06:57;20.30;68.50
6462;DHT22;3264;42.862;25.098;2022-10-13T13:09:27;20.50;69.10
6462;DHT22;3264;42.862;25.098;2022-10-13T13:12:21;20.20;70.00
6462;DHT22;3264;42.862;25.098;2022-10-13T13:14:51;20.10;71.10
6462;DHT22;3264;42.862;25.098;2022-10-13T13:17:28;20.20;73.00
6462;DHT22;3264;42.862;25.098;2022-10-13T13:19:57;20.10;70.90
6462;DHT22;3264;42.862;25.098;2022-10-13T13:22:25;20.00;69.50
6462;DHT22;3264;42.862;25.098;2022-10-13T13:24:53;19.90;70.40
6462;DHT22;3264;42.862;25.098;2022-10-13T13:27:25;20.00;70.30
6462;DHT22;3264;42.862;25.098;2022-10-13T13:29:53;20.10;72.90
6462;DHT22;3264;42.862;25.098;2022-10-13T13:32:24;19.90;71.30
6462;DHT22;3264;42.862;25.098;2022-10-13T13:34:53;19.80;67.70
6462;DHT22;3264;42.862;25.098;2022-10-13T13:37:27;19.90;69.30
6462;DHT22;3264;42.862;25.098;2022-10-13T13:39:57;19.80;73.50
6462;DHT22;3264;42.862;25.098;2022-10-13T13:42:28;19.90;70.60
6462;DHT22;3264;42.862;25.098;2022-10-13T13:44:56;19.90;71.00
6462;DHT22;3264;42.862;25.098;2022-10-13T13:47:27;20.00;70.60
6462;DHT22;3264;42.862;25.098;2022-10-13T13:49:56;20.00;69.80
6462;DHT22;3264;42.862;25.098;2022-10-13T13:52:24;20.10;69.20
6462;DHT22;3264;42.862;25.098;2022-10-13T13:54:52;19.90;68.70
6462;DHT22;3264;42.862;25.098;2022-10-13T13:57:22;19.80;69.80
6462;DHT22;3264;42.862;25.098;2022-10-13T13:59:51;19.60;72.50
6462;DHT22;3264;42.862;25.098;2022-10-13T14:02:19;19.60;69.30
6462;DHT22;3264;42.862;25.098;2022-10-13T14:04:47;19.50;70.40
6462;DHT22;3264;42.862;25.098;2022-10-13T14:07:16;19.40;70.00
6462;DHT22;3264;42.862;25.098;2022-10-13T14:09:44;19.40;71.60
6462;DHT22;3264;42.862;25.098;2022-10-13T14:12:12;19.40;72.40
6462;DHT22;3264;42.862;25.098;2022-10-13T14:14:39;19.30;70.90
6462;DHT22;3264;42.862;25.098;2022-10-13T14:17:10;19.20;72.90
6462;DHT22;3264;42.862;25.098;2022-10-13T14:19:37;19.20;71.30
6462;DHT22;3264;42.862;25.098;2022-10-13T14:22:06;19.00;70.90
6462;DHT22;3264;42.862;25.098;2022-10-13T14:24:35;19.00;71.90
6462;DHT22;3264;42.862;25.098;2022-10-13T14:27:02;18.90;74.10
6462;DHT22;3264;42.862;25.098;2022-10-13T14:29:30;18.60;75.90
6462;DHT22;3264;42.862;25.098;2022-10-13T14:31:58;18.40;75.80
6462;DHT22;3264;42.862;25.098;2022-10-13T14:34:28;18.30;75.50
6462;DHT22;3264;42.862;25.098;2022-10-13T14:36:58;18.30;76.30
6462;DHT22;3264;42.862;25.098;2022-10-13T14:39:26;18.20;76.90
6462;DHT22;3264;42.862;25.098;2022-10-13T14:41:55;18.20;77.20
6462;DHT22;3264;42.862;25.098;2022-10-13T14:44:23;18.30;77.40
6462;DHT22;3264;42.862;25.098;2022-10-13T14:46:51;18.20;78.30
6462;DHT22;3264;42.862;25.098;2022-10-13T14:49:18;18.20;76.80
6462;DHT22;3264;42.862;25.098;2022-10-13T14:51:48;17.90;79.90
6462;DHT22;3264;42.862;25.098;2022-10-13T14:54:16;17.80;81.40
6462;DHT22;3264;42.862;25.098;2022-10-13T14:56:44;17.60;82.90
6462;DHT22;3264;42.862;25.098;2022-10-13T14:59:13;17.50;84.80
6462;DHT22;3264;42.862;25.098;2022-10-13T15:01:40;17.40;87.60
6462;DHT22;3264;42.862;25.098;2022-10-13T15:04:10;17.10;89.40
6462;DHT22;3264;42.862;25.098;2022-10-13T15:06:39;16.90;90.40
6462;DHT22;3264;42.862;25.098;2022-10-13T15:09:11;16.60;91.30
6462;DHT22;3264;42.862;25.098;2022-10-13T15:11:39;16.30;92.20
6462;DHT22;3264;42.862;25.098;2022-10-13T15:14:08;16.10;93.20
6462;DHT22;3264;42.862;25.098;2022-10-13T15:16:36;15.90;93.70
6462;DHT22;3264;42.862;25.098;2022-10-13T15:19:05;15.60;94.50
6462;DHT22;3264;42.862;25.098;2022-10-13T15:21:33;15.50;95.20
6462;DHT22;3264;42.862;25.098;2022-10-13T15:24:00;15.30;95.50
6462;DHT22;3264;42.862;25.098;2022-10-13T15:26:29;15.20;96.30
6462;DHT22;3264;42.862;25.098;2022-10-13T15:28:58;15.10;96.60
6462;DHT22;3264;42.862;25.098;2022-10-13T15:31:27;15.00;96.90
6462;DHT22;3264;42.862;25.098;2022-10-13T15:33:56;14.80;97.40
6462;DHT22;3264;42.862;25.098;2022-10-13T15:36:24;14.70;98.00
6462;DHT22;3264;42.862;25.098;2022-10-13T15:38:52;14.60;98.80
6462;DHT22;3264;42.862;25.098;2022-10-13T15:41:20;14.30;99.30
6462;DHT22;3264;42.862;25.098;2022-10-13T15:43:51;14.20;99.90
6462;DHT22;3264;42.862;25.098;2022-10-13T15:46:18;14.00;99.90
6462;DHT22;3264;42.862;25.098;2022-10-13T15:48:51;13.80;99.90
6462;DHT22;3264;42.862;25.098;2022-10-13T15:51:21;13.80;99.90
6462;DHT22;3264;42.862;25.098;2022-10-13T15:53:49;13.80;99.90
6462;DHT22;3264;42.862;25.098;2022-10-13T15:56:17;13.70;99.90
6462;DHT22;3264;42.862;25.098;2022-10-13T15:58:45;13.70;99.90
6462;DHT22;3264;42.862;25.098;2022-10-13T16:01:14;13.50;99.90
6462;DHT22;3264;42.862;25.098;2022-10-13T16:03:42;13.40;99.90
6462;DHT22;3264;42.862;25.098;2022-10-13T16:06:13;13.30;99.90
6462;DHT22;3264;42.862;25.098;2022-10-13T16:08:41;13.20;99.90
6462;DHT22;3264;42.862;25.098;2022-10-13T16:11:11;13.10;99.90
6462;DHT22;3264;42.862;25.098;2022-10-13T16:13:39;13.10;99.90
6462;DHT22;3264;42.862;25.098;2022-10-13T16:16:08;13.10;99.90
6462;DHT22;3264;42.862;25.098;2022-10-13T16:18:38;13.00;99.90
6462;DHT22;3264;42.862;25.098;2022-10-13T16:21:10;13.00;99.90
6462;DHT22;3264;42.862;25.098;2022-10-13T16:23:38;12.90;99.90
6462;DHT22;3264;42.862;25.098;2022-10-13T16:26:17;12.70;99.90
6462;DHT22;3264;42.862;25.098;2022-10-13T16:28:46;12.60;99.90
6462;DHT22;3264;42.862;25.098;2022-10-13T16:31:16;12.50;99.90
6462;DHT22;3264;42.862;25.098;2022-10-13T16:33:46;12.50;99.90
6462;DHT22;3264;42.862;25.098;2022-10-13T16:36:15;12.30;99.90
6462;DHT22;3264;42.862;25.098;2022-10-13T16:38:43;12.20;99.90